Time;durP1;ratioP1;P1;durP2;ratioP2;P2;SDS_P1;SDS_P2;PMS_P1;PMS_P2;Temp;Humidity;BMP_temperature;BMP_pressure;BME280_temperature;BME280_humidity;BME280_pressure;Samples;Min_cycle;Max_cycle;Signal;HPM_P1;HPM_P2
2021/12/12 00:01:50;;;;;;;12.80;5.00;;;3.80;99.90;;;;;;5054568;28;20025;-68
2021/12/12 00:04:19;;;;;;;13.70;5.00;;;3.80;99.90;;;;;;5035010;28;20036;-68
2021/12/12 00:06:55;;;;;;;10.98;4.93;;;3.70;99.90;;;;;;5053318;28;20055;-70
2021/12/12 00:09:42;;;;;;;10.93;4.43;;;3.70;99.90;;;;;;5053007;28;20393;-70
2021/12/12 00:12:22;;;;;;;10.02;4.88;;;3.70;99.90;;;;;;5052955;28;20052;-70
2021/12/12 00:14:48;;;;;;;10.13;5.07;;;3.70;99.90;;;;;;5052855;28;20053;-70
2021/12/12 00:17:15;;;;;;;10.02;4.40;;;3.60;99.90;;;;;;5052506;28;20032;-70
2021/12/12 00:19:41;;;;;;;20.90;6.72;;;3.60;99.90;;;;;;5034748;28;20025;-71
2021/12/12 00:22:13;;;;;;;12.63;4.40;;;3.50;99.90;;;;;;5052595;28;20036;-70
2021/12/12 00:24:40;;;;;;;12.88;4.65;;;3.50;99.90;;;;;;5034850;28;20033;-70
2021/12/12 00:27:07;;;;;;;7.65;4.05;;;3.50;99.90;;;;;;5034725;28;20021;-70
2021/12/12 00:29:34;;;;;;;13.10;3.80;;;3.40;99.90;;;;;;5052701;28;20025;-70
2021/12/12 00:32:03;;;;;;;11.48;3.35;;;3.40;99.90;;;;;;5052368;28;20068;-69
2021/12/12 00:34:32;;;;;;;11.02;3.30;;;3.40;99.90;;;;;;5052190;28;20078;-70
2021/12/12 00:36:58;;;;;;;9.90;3.28;;;3.50;99.90;;;;;;5034576;28;20021;-70
2021/12/12 00:39:27;;;;;;;6.32;2.78;;;3.80;99.90;;;;;;5054544;28;20471;-70
2021/12/12 00:42:07;;;;;;;9.02;3.53;;;3.90;99.90;;;;;;5056234;28;20040;-70
2021/12/12 00:44:33;;;;;;;6.93;3.22;;;3.70;99.90;;;;;;5056116;28;20032;-70
2021/12/12 00:47:02;;;;;;;5.55;3.47;;;3.70;99.90;;;;;;5056093;28;20029;-70
2021/12/12 00:49:31;;;;;;;9.60;3.53;;;3.60;99.90;;;;;;5055880;28;20043;-70
2021/12/12 00:51:57;;;;;;;8.80;3.55;;;3.60;99.90;;;;;;5055984;28;20568;-70
2021/12/12 00:54:30;;;;;;;8.13;3.83;;;3.60;99.90;;;;;;5055944;28;20036;-70
2021/12/12 00:57:01;;;;;;;9.52;3.17;;;3.60;99.90;;;;;;5056310;28;20025;-70
2021/12/12 00:59:27;;;;;;;10.85;3.65;;;3.70;99.90;;;;;;5037873;28;20108;-71
2021/12/12 01:01:53;;;;;;;;;;;3.70;99.90;;;;;;5056390;28;20428;-69
2021/12/12 01:04:33;;;;;;;10.18;2.92;;;3.70;99.90;;;;;;5055899;28;19909;-70
2021/12/12 01:07:04;;;;;;;7.57;2.92;;;3.70;99.90;;;;;;5055725;28;20029;-69
2021/12/12 01:09:33;;;;;;;11.85;2.78;;;3.80;99.90;;;;;;5055652;28;20432;-70
2021/12/12 01:12:03;;;;;;;11.15;3.33;;;3.80;99.90;;;;;;5055483;28;20039;-70
2021/12/12 01:14:33;;;;;;;10.38;4.47;;;3.80;99.90;;;;;;5037585;28;20535;-70
2021/12/12 01:17:10;;;;;;;9.57;3.35;;;3.80;99.90;;;;;;5055830;28;20083;-70
2021/12/12 01:19:44;;;;;;;7.18;3.20;;;3.80;99.90;;;;;;5055738;28;20049;-70
2021/12/12 01:22:16;;;;;;;10.43;3.35;;;3.80;99.90;;;;;;5055254;28;20470;-70
2021/12/12 01:24:47;;;;;;;7.47;2.70;;;3.80;99.90;;;;;;5055345;28;20119;-70
2021/12/12 01:27:13;;;;;;;10.57;3.08;;;3.90;99.90;;;;;;5037552;28;20535;-69
2021/12/12 01:29:40;;;;;;;8.82;2.65;;;4.10;99.90;;;;;;5055533;28;20113;-70
2021/12/12 01:32:12;;;;;;;6.13;2.35;;;4.10;99.90;;;;;;5055354;28;20422;-70
2021/12/12 01:34:39;;;;;;;9.70;3.45;;;4.10;99.90;;;;;;5055278;28;20029;-69
2021/12/12 01:37:35;;;;;;;6.15;2.22;;;4.10;99.90;;;;;;5037324;28;20108;-70
2021/12/12 01:40:23;;;;;;;7.53;2.70;;;4.20;99.90;;;;;;5037308;28;20032;-70
2021/12/12 01:43:12;;;;;;;9.20;2.95;;;4.20;99.90;;;;;;5037331;28;20108;-70
2021/12/12 01:45:45;;;;;;;12.13;3.22;;;4.20;99.90;;;;;;5037070;28;20021;-70
2021/12/12 01:48:25;;;;;;;6.47;2.75;;;4.10;99.90;;;;;;5037237;28;20032;-70
2021/12/12 01:50:56;;;;;;;10.07;2.92;;;4.10;99.90;;;;;;5036351;28;20430;-70
2021/12/12 01:53:26;;;;;;;10.30;2.63;;;4.10;99.90;;;;;;5054985;28;20067;-70
2021/12/12 01:56:08;;;;;;;11.00;3.85;;;4.10;99.90;;;;;;5057744;28;20047;-70
2021/12/12 01:58:37;;;;;;;5.35;2.50;;;4.20;99.90;;;;;;5063581;28;20025;-70
2021/12/12 02:01:20;;;;;;;8.20;3.00;;;4.30;99.90;;;;;;5037891;28;20064;-70
2021/12/12 02:03:51;;;;;;;9.88;3.30;;;4.20;99.90;;;;;;5036937;28;20021;-70
2021/12/12 02:06:21;;;;;;;7.35;2.80;;;4.20;99.90;;;;;;5054829;28;20064;-70
2021/12/12 02:08:49;;;;;;;9.57;2.70;;;4.10;99.90;;;;;;5037593;28;20119;-70
2021/12/12 02:11:19;;;;;;;8.68;3.45;;;4.10;99.90;;;;;;5054868;28;20489;-70
2021/12/12 02:13:48;;;;;;;6.20;2.90;;;4.10;99.90;;;;;;5056360;28;20382;-70
2021/12/12 02:16:15;;;;;;;6.95;3.17;;;4.00;99.90;;;;;;5036997;28;20112;-70
2021/12/12 02:18:47;;;;;;;10.68;3.15;;;3.90;99.90;;;;;;5037362;28;20052;-71
2021/12/12 02:21:25;;;;;;;11.25;3.25;;;4.00;99.90;;;;;;5036807;28;20472;-71
2021/12/12 02:35:19;;;;;;;6.32;2.63;;;4.00;99.90;;;;;;5058479;28;20036;-71
2021/12/12 02:37:47;;;;;;;10.48;2.95;;;4.00;99.90;;;;;;5047014;28;20032;-70
2021/12/12 02:40:18;;;;;;;7.28;2.40;;;4.00;99.90;;;;;;5036832;28;20028;-70
2021/12/12 02:42:45;;;;;;;10.30;2.80;;;4.10;99.90;;;;;;5036667;28;20021;-70
2021/12/12 02:45:15;;;;;;;10.60;3.13;;;4.00;99.90;;;;;;5054624;28;20091;-71
2021/12/12 02:47:41;;;;;;;7.72;2.78;;;4.00;99.90;;;;;;5036432;28;20028;-70
2021/12/12 02:50:17;;;;;;;8.18;2.97;;;4.00;99.90;;;;;;5054292;28;20036;-69
2021/12/12 02:52:47;;;;;;;11.23;3.58;;;4.00;99.90;;;;;;5054016;28;20025;-70
2021/12/12 02:55:29;;;;;;;8.18;2.47;;;4.20;99.90;;;;;;5053636;28;20039;-70
2021/12/12 02:57:58;;;;;;;5.07;2.08;;;4.20;99.90;;;;;;5035492;28;20017;-70
2021/12/12 03:00:28;;;;;;;5.95;2.33;;;4.30;99.90;;;;;;5035925;28;20108;-70
2021/12/12 03:02:58;;;;;;;10.65;2.60;;;4.20;99.90;;;;;;5053262;28;20035;-69
2021/12/12 03:05:32;;;;;;;8.32;2.28;;;4.20;99.90;;;;;;5035596;28;20079;-70
2021/12/12 03:07:59;;;;;;;5.10;2.42;;;4.10;99.90;;;;;;5053431;28;20029;-70
2021/12/12 03:10:30;;;;;;;5.68;2.53;;;4.10;99.90;;;;;;5035964;28;20443;-70
2021/12/12 03:12:56;;;;;;;22.98;7.45;;;4.00;99.90;;;;;;5035422;28;20033;-69
2021/12/12 03:15:29;;;;;;;10.60;3.25;;;4.00;99.90;;;;;;5035267;28;20071;-70
2021/12/12 03:17:58;;;;;;;9.32;2.75;;;4.10;99.90;;;;;;5038996;28;20029;-69
2021/12/12 03:20:31;;;;;;;9.00;3.85;;;4.10;99.90;;;;;;5036717;28;20044;-69
2021/12/12 03:23:20;;;;;;;8.32;2.47;;;4.20;99.90;;;;;;5037108;28;20497;-70
2021/12/12 03:25:53;;;;;;;10.48;3.08;;;4.20;99.90;;;;;;5035293;28;20035;-69
2021/12/12 03:28:21;;;;;;;13.18;3.40;;;4.10;99.90;;;;;;5054450;28;20473;-70
2021/12/12 03:30:52;;;;;;;12.35;2.72;;;4.10;99.90;;;;;;5055196;28;20028;-70
2021/12/12 03:33:19;;;;;;;6.60;2.13;;;4.10;99.90;;;;;;5037376;28;20386;-70
2021/12/12 03:35:51;;;;;;;6.07;2.70;;;4.20;99.90;;;;;;5053277;28;20025;-70
2021/12/12 03:38:17;;;;;;;7.10;2.75;;;4.20;99.90;;;;;;5052975;28;20028;-70
2021/12/12 03:40:45;;;;;;;7.47;2.60;;;4.10;99.90;;;;;;5053042;28;20025;-70
2021/12/12 03:43:14;;;;;;;13.50;5.30;;;3.90;99.90;;;;;;5035382;28;20155;-69
2021/12/12 03:45:42;;;;;;;6.70;2.67;;;3.90;99.90;;;;;;5054437;28;20025;-69
2021/12/12 03:48:12;;;;;;;7.63;2.78;;;3.80;99.90;;;;;;5035058;28;20128;-69
2021/12/12 03:50:40;;;;;;;11.13;3.88;;;3.80;99.90;;;;;;5052900;28;20025;-69
2021/12/12 03:53:13;;;;;;;8.02;2.83;;;3.70;99.90;;;;;;5035094;28;20056;-69
2021/12/12 03:55:40;;;;;;;16.50;5.35;;;3.60;99.90;;;;;;5035016;28;20052;-69
2021/12/12 03:58:07;;;;;;;8.07;3.47;;;3.60;99.90;;;;;;5035141;28;20354;-69
2021/12/12 04:00:44;;;;;;;5.25;2.78;;;3.50;99.90;;;;;;5056977;28;20021;-71
2021/12/12 04:03:12;;;;;;;6.38;3.20;;;3.50;99.90;;;;;;5038778;28;20113;-70
2021/12/12 04:05:37;;;;;;;5.57;2.78;;;3.50;99.90;;;;;;5052866;28;20032;-70
2021/12/12 04:08:04;;;;;;;8.27;2.70;;;3.50;99.90;;;;;;5034814;28;20390;-70
2021/12/12 04:10:30;;;;;;;7.68;3.13;;;3.40;99.90;;;;;;5053059;28;20263;-70
2021/12/12 04:12:57;;;;;;;5.97;3.25;;;3.40;99.90;;;;;;5052520;28;20025;-70
2021/12/12 04:15:23;;;;;;;11.50;3.15;;;3.40;99.90;;;;;;5056294;28;20104;-69
2021/12/12 04:17:49;;;;;;;7.07;3.20;;;3.40;99.90;;;;;;5056582;28;20112;-69
2021/12/12 04:20:19;;;;;;;7.78;3.20;;;3.30;99.90;;;;;;5056759;28;20535;-70
2021/12/12 04:22:46;;;;;;;9.15;3.30;;;3.30;99.90;;;;;;5038438;28;20037;-70
2021/12/12 04:25:12;;;;;;;12.15;5.85;;;3.30;99.90;;;;;;5038576;28;20025;-70
2021/12/12 04:27:38;;;;;;;8.27;5.20;;;3.30;99.90;;;;;;5057279;28;20557;-70
2021/12/12 04:30:06;;;;;;;7.47;3.15;;;3.20;99.90;;;;;;5056291;28;20036;-70
2021/12/12 04:32:32;;;;;;;8.85;3.20;;;3.20;99.90;;;;;;5038247;28;20035;-70
2021/12/12 04:35:08;;;;;;;6.97;3.85;;;3.20;99.90;;;;;;5038743;28;20470;-70
2021/12/12 04:37:34;;;;;;;6.82;3.60;;;3.20;99.90;;;;;;5038433;28;20025;-70
2021/12/12 04:40:00;;;;;;;10.77;4.05;;;3.20;99.90;;;;;;5038313;28;20497;-70
2021/12/12 04:42:35;;;;;;;10.20;3.85;;;3.20;99.90;;;;;;5056176;28;20040;-70
2021/12/12 04:45:36;;;;;;;9.85;3.85;;;3.20;99.90;;;;;;5058798;28;20049;-69
2021/12/12 04:51:26;;;;;;;8.98;4.18;;;3.10;99.90;;;;;;5056608;28;20106;-70
2021/12/12 04:54:02;;;;;;;8.13;3.38;;;3.10;99.90;;;;;;5060320;28;20343;-70
2021/12/12 04:56:41;;;;;;;10.55;3.83;;;3.10;99.90;;;;;;5061905;28;20029;-70
2021/12/12 04:59:19;;;;;;;7.82;3.33;;;3.10;99.90;;;;;;5040245;28;20028;-70
2021/12/12 05:01:55;;;;;;;9.40;3.40;;;3.10;99.90;;;;;;5055792;28;20024;-69
2021/12/12 05:04:23;;;;;;;8.00;3.80;;;3.10;99.90;;;;;;5055888;28;20099;-70
2021/12/12 05:07:21;;;;;;;8.52;4.28;;;3.00;99.90;;;;;;5055567;28;20032;-70
2021/12/12 05:09:50;;;;;;;;;;;3.00;99.90;;;;;;5056143;28;20102;-70
2021/12/12 05:12:43;;;;;;;9.35;4.07;;;3.00;99.90;;;;;;5037706;28;19904;-70
2021/12/12 05:15:19;;;;;;;11.27;3.95;;;2.90;99.90;;;;;;5055779;28;20128;-70
2021/12/12 05:17:52;;;;;;;6.90;4.07;;;2.90;99.90;;;;;;5037817;28;20115;-71
2021/12/12 05:20:25;;;;;;;13.25;4.68;;;2.90;99.90;;;;;;5056268;28;20016;-70
2021/12/12 05:22:55;;;;;;;8.00;4.50;;;2.80;99.90;;;;;;5037324;28;20175;-70
2021/12/12 05:25:25;;;;;;;10.23;4.28;;;2.80;99.90;;;;;;5055388;28;20017;-70
2021/12/12 05:27:55;;;;;;;7.00;4.38;;;2.80;99.90;;;;;;5055159;28;20399;-69
2021/12/12 05:30:24;;;;;;;12.73;4.43;;;2.70;99.90;;;;;;5037198;28;20025;-70
2021/12/12 05:32:52;;;;;;;11.43;4.30;;;2.70;99.90;;;;;;5055053;28;20029;-70
2021/12/12 05:35:22;;;;;;;11.10;4.15;;;2.70;99.90;;;;;;5037149;28;20112;-69
2021/12/12 05:37:54;;;;;;;9.45;3.88;;;2.70;99.90;;;;;;5055653;28;20017;-69
2021/12/12 05:40:22;;;;;;;14.10;4.53;;;2.70;99.90;;;;;;5037090;28;20052;-70
2021/12/12 05:42:51;;;;;;;9.45;4.10;;;2.70;99.90;;;;;;5054989;28;20021;-69
2021/12/12 05:45:17;;;;;;;6.20;3.92;;;2.70;99.90;;;;;;5054846;28;20021;-69
2021/12/12 05:47:43;;;;;;;11.25;4.45;;;2.70;99.90;;;;;;5054969;28;20390;-70
2021/12/12 05:50:11;;;;;;;6.75;3.67;;;2.70;99.90;;;;;;5036948;28;20040;-69
2021/12/12 05:52:37;;;;;;;9.98;4.47;;;2.80;99.90;;;;;;5055094;28;20029;-70
2021/12/12 05:55:09;;;;;;;6.38;3.63;;;2.70;99.90;;;;;;5054832;28;20025;-69
2021/12/12 05:57:35;;;;;;;10.98;4.20;;;2.70;99.90;;;;;;5037208;28;20025;-69
2021/12/12 06:00:04;;;;;;;;;;;2.70;99.90;;;;;;5037650;28;20131;-69
2021/12/12 06:02:33;;;;;;;9.13;3.80;;;2.80;99.90;;;;;;5038747;28;19915;-71
2021/12/12 06:04:59;;;;;;;6.50;3.35;;;2.80;99.90;;;;;;5036661;28;20025;-69
2021/12/12 06:07:25;;;;;;;6.23;3.23;;;2.80;99.90;;;;;;5056341;28;20029;-68
2021/12/12 06:09:52;;;;;;;6.57;3.08;;;2.80;99.90;;;;;;5054942;28;20385;-68
2021/12/12 06:12:19;;;;;;;9.07;3.95;;;2.80;99.90;;;;;;5054679;28;20025;-67
2021/12/12 06:14:45;;;;;;;9.32;3.70;;;2.80;99.90;;;;;;5036470;28;20182;-67
2021/12/12 06:17:13;;;;;;;7.13;3.35;;;2.80;99.90;;;;;;5054550;28;20028;-68
2021/12/12 06:19:43;;;;;;;6.68;3.30;;;2.70;99.90;;;;;;5054413;28;20021;-67
2021/12/12 06:22:09;;;;;;;15.65;6.85;;;2.80;99.90;;;;;;5057506;28;20036;-67
2021/12/12 06:24:36;;;;;;;6.43;2.85;;;2.80;99.90;;;;;;5054516;28;20393;-68
2021/12/12 06:27:11;;;;;;;9.50;3.10;;;2.80;99.90;;;;;;5036515;28;20063;-68
2021/12/12 06:29:36;;;;;;;6.60;3.05;;;2.80;99.90;;;;;;5036652;28;20024;-68
2021/12/12 06:32:03;;;;;;;6.87;3.93;;;2.80;99.90;;;;;;5054612;28;20021;-68
2021/12/12 06:34:29;;;;;;;7.05;3.03;;;2.80;99.90;;;;;;5036615;28;20025;-69
2021/12/12 06:36:56;;;;;;;9.47;3.50;;;2.80;99.90;;;;;;5036186;28;20079;-69
2021/12/12 06:39:22;;;;;;;6.40;3.67;;;2.90;99.90;;;;;;5056443;28;20054;-69
2021/12/12 06:41:49;;;;;;;7.53;3.30;;;2.80;99.90;;;;;;5037528;28;20025;-68
2021/12/12 06:44:16;;;;;;;5.72;3.70;;;2.90;99.90;;;;;;5055885;28;20032;-68
2021/12/12 06:46:42;;;;;;;12.15;3.85;;;2.90;99.90;;;;;;5036723;28;20390;-69
2021/12/12 06:49:09;;;;;;;;;;;2.90;99.90;;;;;;5054835;28;20100;-68
2021/12/12 06:51:41;;;;;;;5.13;2.83;;;2.90;99.90;;;;;;5047554;28;19927;-69
2021/12/12 06:54:08;;;;;;;10.52;3.83;;;2.90;99.90;;;;;;5058149;28;20021;-69
2021/12/12 06:56:34;;;;;;;8.60;3.85;;;2.90;99.90;;;;;;5037687;28;20021;-69
2021/12/12 06:59:03;;;;;;;9.55;3.75;;;3.00;99.90;;;;;;5055157;28;20486;-69
2021/12/12 07:01:32;;;;;;;8.73;3.28;;;3.00;99.90;;;;;;5038167;28;20037;-68
2021/12/12 07:04:00;;;;;;;11.88;3.70;;;3.10;99.90;;;;;;5053643;28;20075;-68
2021/12/12 07:06:29;;;;;;;7.88;3.80;;;3.10;99.90;;;;;;5036040;28;20029;-69
2021/12/12 07:08:59;;;;;;;9.55;3.70;;;3.10;99.90;;;;;;5053733;28;20029;-71
2021/12/12 07:11:27;;;;;;;8.98;4.22;;;3.30;99.90;;;;;;5035735;28;20120;-72
2021/12/12 07:13:53;;;;;;;10.00;5.03;;;3.50;99.90;;;;;;5053709;28;20487;-71
2021/12/12 07:16:21;;;;;;;6.00;3.40;;;3.40;99.90;;;;;;5037224;28;20462;-77
2021/12/12 07:18:47;;;;;;;9.23;3.45;;;3.40;99.90;;;;;;5054165;28;20029;-72
2021/12/12 07:21:21;;;;;;;5.30;3.10;;;3.50;99.90;;;;;;5036682;28;20029;-74
2021/12/12 07:23:49;;;;;;;6.50;3.00;;;3.50;99.90;;;;;;5035750;28;20521;-73
2021/12/12 07:26:16;;;;;;;7.90;2.75;;;3.50;99.90;;;;;;5053453;28;20460;-73
2021/12/12 07:28:43;;;;;;;5.88;2.88;;;3.40;99.90;;;;;;5053758;28;20033;-72
2021/12/12 07:31:12;;;;;;;;;;;3.50;99.90;;;;;;5053995;28;20025;-72
2021/12/12 07:33:38;;;;;;;5.10;2.88;;;3.50;99.90;;;;;;5053601;28;19911;-72
2021/12/12 07:36:06;;;;;;;6.47;2.45;;;3.40;99.90;;;;;;5054994;28;20021;-72
2021/12/12 07:38:33;;;;;;;6.10;2.80;;;3.60;99.90;;;;;;5054157;28;20025;-73
2021/12/12 07:40:59;;;;;;;;;;;3.70;99.90;;;;;;5036199;28;20025;-70
2021/12/12 07:43:27;;;;;;;6.47;2.70;;;3.70;99.90;;;;;;5053800;28;19912;-70
2021/12/12 07:45:53;;;;;;;8.48;2.75;;;3.70;99.90;;;;;;5053130;28;20496;-68
2021/12/12 07:48:19;;;;;;;6.28;2.88;;;3.70;99.90;;;;;;5052772;28;20025;-71
2021/12/12 07:50:46;;;;;;;4.38;2.80;;;3.90;99.90;;;;;;5035493;28;20041;-70
2021/12/12 07:53:13;;;;;;;8.13;2.88;;;4.00;99.90;;;;;;5052843;28;20021;-71
2021/12/12 07:55:39;;;;;;;9.25;3.10;;;3.90;99.90;;;;;;5052789;28;20033;-71
2021/12/12 07:58:07;;;;;;;5.13;2.65;;;3.80;99.90;;;;;;5035146;28;20029;-71
2021/12/12 08:00:34;;;;;;;7.80;2.50;;;3.70;99.90;;;;;;5052849;28;20032;-71
2021/12/12 08:03:00;;;;;;;;;;;3.70;99.90;;;;;;5035387;28;20025;-71
2021/12/12 08:05:28;;;;;;;8.95;2.60;;;3.70;99.90;;;;;;5052968;28;20281;-71
2021/12/12 08:07:58;;;;;;;8.60;2.90;;;3.70;99.90;;;;;;5034989;28;20053;-65
2021/12/12 08:10:24;;;;;;;7.15;3.05;;;3.70;99.90;;;;;;5052615;28;20029;-64
2021/12/12 08:12:50;;;;;;;7.00;2.72;;;3.80;99.90;;;;;;5052649;28;20052;-64
2021/12/12 08:15:17;;;;;;;6.60;2.60;;;3.90;99.90;;;;;;5034753;28;20057;-64
2021/12/12 08:17:43;;;;;;;5.90;2.70;;;3.90;99.90;;;;;;5053109;28;20017;-64
2021/12/12 08:20:11;;;;;;;5.53;2.38;;;4.10;99.90;;;;;;5052598;28;20086;-64
2021/12/12 08:22:37;;;;;;;5.60;2.22;;;4.10;99.90;;;;;;5034470;28;20037;-63
2021/12/12 08:25:07;;;;;;;5.80;2.60;;;4.20;99.90;;;;;;5053613;28;20025;-62
2021/12/12 08:27:33;;;;;;;5.40;2.65;;;4.20;99.90;;;;;;5052725;28;20037;-64
2021/12/12 08:30:00;;;;;;;8.70;2.75;;;4.10;99.90;;;;;;5052453;28;20477;-64
2021/12/12 08:32:26;;;;;;;4.07;2.35;;;4.00;99.90;;;;;;5052412;28;20033;-63
2021/12/12 08:34:52;;;;;;;;;;;4.10;99.90;;;;;;5053449;28;20029;-64
2021/12/12 08:37:18;;;;;;;4.32;2.53;;;4.10;99.90;;;;;;5052801;28;19994;-65
2021/12/12 08:39:44;;;;;;;5.50;2.85;;;4.20;99.90;;;;;;5052797;28;20029;-65
2021/12/12 08:42:10;;;;;;;8.25;2.55;;;4.30;99.90;;;;;;5052847;28;20363;-70
2021/12/12 08:44:37;;;;;;;5.73;2.03;;;4.30;99.90;;;;;;5052822;28;20051;-70
2021/12/12 08:47:06;;;;;;;6.78;2.40;;;4.30;99.90;;;;;;5052889;28;20027;-68
2021/12/12 08:49:34;;;;;;;8.20;2.63;;;4.20;99.90;;;;;;5058652;28;20029;-73
2021/12/12 08:52:14;;;;;;;3.88;2.30;;;4.20;99.90;;;;;;5056868;28;20029;-70
2021/12/12 08:54:42;;;;;;;6.38;2.30;;;4.30;99.90;;;;;;5035917;28;20033;-72
2021/12/12 08:57:23;;;;;;;6.95;2.58;;;4.30;99.90;;;;;;5035561;28;20017;-70
2021/12/12 08:59:52;;;;;;;12.32;3.70;;;4.40;99.90;;;;;;5036651;28;20124;-70
2021/12/12 09:02:19;;;;;;;4.32;2.30;;;4.60;99.90;;;;;;5057251;28;20032;-69
2021/12/12 09:04:54;;;;;;;5.47;2.72;;;4.60;99.90;;;;;;5056263;28;20521;-66
2021/12/12 09:07:25;;;;;;;7.18;2.80;;;4.70;99.90;;;;;;5055977;28;20056;-69
2021/12/12 09:10:12;;;;;;;4.22;2.70;;;4.80;99.90;;;;;;5055756;28;20032;-69
2021/12/12 09:12:43;;;;;;;8.10;2.70;;;4.90;99.90;;;;;;5056241;28;20041;-69
2021/12/12 09:15:14;;;;;;;8.88;2.90;;;4.90;99.90;;;;;;5055635;28;20505;-70
2021/12/12 09:17:46;;;;;;;8.38;2.58;;;4.90;99.90;;;;;;5055787;28;20017;-66
2021/12/12 09:20:26;;;;;;;6.95;2.80;;;5.10;99.90;;;;;;5055368;28;20025;-68
2021/12/12 09:23:00;;;;;;;6.55;2.50;;;5.10;99.90;;;;;;5055453;28;20032;-66
2021/12/12 09:25:31;;;;;;;10.35;3.13;;;5.10;99.90;;;;;;5055744;28;20021;-66
2021/12/12 09:28:15;;;;;;;8.13;3.00;;;5.10;99.90;;;;;;5055530;28;20120;-66
2021/12/12 09:30:41;;;;;;;8.15;3.10;;;5.10;99.90;;;;;;5055634;28;20021;-66
2021/12/12 09:33:28;;;;;;;8.27;3.25;;;5.30;99.90;;;;;;5037397;28;20052;-68
2021/12/12 09:36:04;;;;;;;14.45;3.40;;;5.40;99.90;;;;;;5055594;28;20032;-66
2021/12/12 09:38:40;;;;;;;9.07;3.22;;;5.40;99.90;;;;;;5055557;28;20045;-64
2021/12/12 09:41:27;;;;;;;6.93;2.58;;;5.60;99.90;;;;;;5055721;28;20021;-67
2021/12/12 09:43:53;;;;;;;5.25;2.65;;;5.60;99.90;;;;;;5055270;28;20021;-65
2021/12/12 09:46:44;;;;;;;7.57;2.60;;;5.60;99.90;;;;;;5037664;28;20040;-67
2021/12/12 09:52:39;;;;;;;4.47;2.20;;;5.80;99.90;;;;;;5055404;28;20044;-68
2021/12/12 09:55:12;;;;;;;5.85;2.25;;;5.80;99.90;;;;;;5004135;28;20058;-67
2021/12/12 09:57:52;;;;;;;6.25;2.33;;;5.80;99.90;;;;;;5054997;28;20037;-67
2021/12/12 10:00:50;;;;;;;6.47;2.58;;;5.90;99.90;;;;;;5054873;28;20013;-68
2021/12/12 10:03:27;;;;;;;;;;;6.00;99.90;;;;;;5037542;28;20041;-69
2021/12/12 10:06:15;;;;;;;3.33;1.85;;;6.00;99.90;;;;;;5055189;28;19986;-70
2021/12/12 10:09:13;;;;;;;6.82;1.90;;;6.00;99.90;;;;;;5036962;28;20324;-71
2021/12/12 10:11:44;;;;;;;8.00;1.90;;;6.00;99.90;;;;;;5046622;28;20052;-66
2021/12/12 10:14:51;;;;;;;3.60;2.05;;;6.00;99.90;;;;;;5036703;28;20501;-66
2021/12/12 10:17:22;;;;;;;5.65;2.03;;;6.00;99.90;;;;;;5053651;28;20041;-66
2021/12/12 10:19:59;;;;;;;5.60;1.85;;;6.00;99.90;;;;;;5036550;28;20044;-66
2021/12/12 10:22:40;;;;;;;4.00;2.10;;;6.10;99.90;;;;;;5054360;28;20028;-67
2021/12/12 10:25:16;;;;;;;4.10;1.88;;;6.10;99.90;;;;;;5036733;28;20402;-67
2021/12/12 10:28:01;;;;;;;5.95;2.08;;;6.10;99.90;;;;;;5055084;28;20528;-66
2021/12/12 10:30:32;;;;;;;8.13;2.08;;;6.10;99.90;;;;;;5054303;28;20025;-66
2021/12/12 10:33:20;;;;;;;3.40;2.08;;;6.10;99.90;;;;;;5054788;28;20342;-73
2021/12/12 10:35:58;;;;;;;6.93;1.92;;;6.10;99.90;;;;;;5036288;28;20114;-67
2021/12/12 10:38:31;;;;;;;3.90;1.75;;;6.20;99.90;;;;;;5054782;28;20036;-67
2021/12/12 10:41:13;;;;;;;5.53;1.80;;;6.20;99.90;;;;;;5054324;28;20441;-69
2021/12/12 10:43:49;;;;;;;4.22;1.67;;;6.10;99.90;;;;;;5035821;28;20025;-67
2021/12/12 10:46:28;;;;;;;5.28;2.08;;;6.30;99.90;;;;;;5053801;28;20032;-66
2021/12/12 10:49:22;;;;;;;6.03;1.70;;;6.20;99.90;;;;;;5054135;28;20086;-66
2021/12/12 10:51:54;;;;;;;5.47;1.90;;;6.30;99.90;;;;;;5035667;28;20500;-66
2021/12/12 10:54:27;;;;;;;6.13;2.10;;;6.10;99.90;;;;;;5035707;28;20090;-66
2021/12/12 10:57:01;;;;;;;4.72;1.67;;;6.20;99.90;;;;;;5036124;28;20021;-66
2021/12/12 10:59:36;;;;;;;4.30;1.80;;;6.10;99.90;;;;;;5056132;28;20092;-66
2021/12/12 11:02:10;;;;;;;6.18;2.25;;;6.20;99.90;;;;;;5053887;28;20485;-66
2021/12/12 11:04:45;;;;;;;9.52;2.22;;;6.20;99.90;;;;;;5053869;28;20025;-66
2021/12/12 11:07:28;;;;;;;3.75;1.70;;;6.20;99.90;;;;;;5053424;28;20021;-67
2021/12/12 11:10:06;;;;;;;7.05;2.42;;;6.20;99.90;;;;;;5035775;28;20490;-68
2021/12/12 11:12:42;;;;;;;3.28;1.88;;;6.30;99.90;;;;;;5053475;28;20025;-67
2021/12/12 11:15:08;;;;;;;4.80;2.50;;;6.30;99.90;;;;;;5053633;28;20021;-68
2021/12/12 11:17:54;;;;;;;4.88;1.73;;;6.40;99.90;;;;;;5035461;28;20029;-66
2021/12/12 11:20:26;;;;;;;4.78;1.58;;;6.40;99.90;;;;;;5053276;28;20029;-66
2021/12/12 11:23:02;;;;;;;5.45;1.73;;;6.40;99.90;;;;;;5052817;28;20116;-67
2021/12/12 11:25:36;;;;;;;3.85;1.88;;;6.50;99.90;;;;;;5053534;28;20035;-69
2021/12/12 11:28:10;;;;;;;4.18;1.88;;;6.50;99.90;;;;;;5053947;28;20462;-68
2021/12/12 11:30:52;;;;;;;6.05;3.03;;;6.50;99.90;;;;;;5053591;28;20025;-69
2021/12/12 11:33:21;;;;;;;6.28;1.83;;;6.60;99.90;;;;;;5054164;28;20021;-69
2021/12/12 11:35:53;;;;;;;2.92;1.92;;;6.80;99.90;;;;;;5035666;28;20032;-68
2021/12/12 11:38:37;;;;;;;3.60;1.85;;;6.90;99.90;;;;;;5053690;28;20463;-69
2021/12/12 11:41:11;;;;;;;9.77;3.40;;;7.00;99.90;;;;;;5035263;28;20028;-70
2021/12/12 11:43:54;;;;;;;5.65;1.95;;;7.00;99.90;;;;;;5054167;28;20017;-69
2021/12/12 11:46:28;;;;;;;3.63;1.65;;;6.80;99.90;;;;;;5053489;28;20411;-70
2021/12/12 11:49:16;;;;;;;7.75;2.53;;;6.80;99.90;;;;;;5034954;28;20032;-69
2021/12/12 11:52:06;;;;;;;5.80;2.08;;;6.80;99.90;;;;;;5035417;28;20052;-66
2021/12/12 11:54:55;;;;;;;5.18;2.20;;;6.80;99.90;;;;;;5051866;28;20359;-68
2021/12/12 11:57:30;;;;;;;8.07;3.15;;;6.90;99.90;;;;;;5052447;28;20101;-67
2021/12/12 12:00:18;;;;;;;7.03;3.17;;;6.90;99.90;;;;;;5052695;28;20020;-66
2021/12/12 12:03:27;;;;;;;6.50;2.35;;;6.80;99.90;;;;;;5034070;28;20075;-65
2021/12/12 12:06:30;;;;;;;5.15;2.58;;;6.70;99.90;;;;;;5053087;28;20009;-67
2021/12/12 12:09:05;;;;;;;7.53;2.90;;;6.80;99.90;;;;;;5034378;28;20029;-66
2021/12/12 12:11:45;;;;;;;10.10;4.78;;;6.80;99.90;;;;;;5052459;28;20021;-65
2021/12/12 12:14:27;;;;;;;4.97;2.85;;;6.90;99.90;;;;;;5052284;28;20029;-65
2021/12/12 12:17:09;;;;;;;4.70;2.80;;;6.90;99.90;;;;;;5035243;28;20025;-66
2021/12/12 12:20:06;;;;;;;7.78;3.22;;;6.90;99.90;;;;;;5054177;28;20099;-68
2021/12/12 12:22:36;;;;;;;4.50;2.33;;;6.80;99.90;;;;;;5018167;28;1122424;-68
2021/12/12 12:25:28;;;;;;;8.23;3.10;;;6.80;99.90;;;;;;5054965;28;20029;-69
2021/12/12 12:28:03;;;;;;;3.88;2.53;;;6.90;99.90;;;;;;5014047;28;20056;-66
2021/12/12 12:30:50;;;;;;;5.70;2.20;;;6.90;99.90;;;;;;5054376;28;20025;-65
2021/12/12 12:34:10;;;;;;;2.38;1.58;;;7.00;99.90;;;;;;5060198;28;20532;-71
2021/12/12 12:37:12;;;;;;;4.65;1.98;;;7.00;99.90;;;;;;4946012;29;20094;-67
2021/12/12 12:40:14;;;;;;;7.05;2.63;;;7.00;99.90;;;;;;4998038;28;20035;-66
2021/12/12 12:43:07;;;;;;;5.53;2.63;;;6.90;99.90;;;;;;5042385;28;20025;-66
2021/12/12 12:45:55;;;;;;;4.00;2.08;;;6.90;99.90;;;;;;5061864;28;20032;-67
2021/12/12 12:49:12;;;;;;;6.07;2.10;;;6.90;99.90;;;;;;5056291;28;20017;-67
2021/12/12 12:51:52;;;;;;;5.45;2.15;;;6.90;99.90;;;;;;5055964;28;20066;-66
2021/12/12 12:54:45;;;;;;;6.93;2.60;;;6.90;99.90;;;;;;5056060;28;20073;-67
2021/12/12 12:57:24;;;;;;;5.35;2.38;;;7.00;99.90;;;;;;5056328;28;19909;-67
2021/12/12 13:00:08;;;;;;;5.30;3.05;;;6.90;99.90;;;;;;5056276;28;20029;-66
2021/12/12 13:03:21;;;;;;;3.95;1.95;;;6.80;99.90;;;;;;5038005;28;20021;-66
2021/12/12 13:06:01;;;;;;;5.22;2.10;;;6.80;99.90;;;;;;4955818;29;20027;-66
2021/12/12 13:08:50;;;;;;;10.35;3.47;;;7.00;99.90;;;;;;5027061;28;20036;-67
2021/12/12 13:11:38;;;;;;;4.25;1.98;;;6.90;99.90;;;;;;5056201;28;20028;-67
2021/12/12 13:14:48;;;;;;;3.35;1.83;;;6.90;99.90;;;;;;5005419;28;20041;-67
2021/12/12 13:17:22;;;;;;;3.20;1.88;;;6.80;99.90;;;;;;4956015;29;20095;-68
2021/12/12 13:20:01;;;;;;;7.85;3.80;;;6.90;99.90;;;;;;4955784;29;20027;-67
2021/12/12 13:22:46;;;;;;;6.05;2.22;;;6.80;99.90;;;;;;5020746;28;20052;-67
2021/12/12 13:25:23;;;;;;;2.72;1.80;;;6.80;99.90;;;;;;5056453;28;20025;-66
2021/12/12 13:28:06;;;;;;;3.35;1.60;;;6.90;99.90;;;;;;5056282;28;20021;-66
2021/12/12 13:30:58;;;;;;;5.20;2.15;;;7.00;99.90;;;;;;5055503;28;20025;-67
2021/12/12 13:33:35;;;;;;;3.97;1.90;;;7.00;99.90;;;;;;5055773;28;20078;-66
2021/12/12 13:36:04;;;;;;;4.30;1.75;;;7.00;99.90;;;;;;5055228;28;20470;-66
2021/12/12 13:38:51;;;;;;;3.20;1.90;;;7.10;99.90;;;;;;5055385;28;20041;-66
2021/12/12 13:41:35;;;;;;;4.82;1.77;;;7.00;99.90;;;;;;5055377;28;20523;-67
2021/12/12 13:44:11;;;;;;;3.45;1.77;;;7.00;99.90;;;;;;5055385;28;20025;-66
2021/12/12 13:46:55;;;;;;;3.15;1.30;;;7.00;99.90;;;;;;5054205;28;20029;-67
2021/12/12 13:49:25;;;;;;;3.42;1.85;;;6.90;99.90;;;;;;5056804;28;20040;-66
2021/12/12 13:52:11;;;;;;;4.65;1.77;;;6.90;99.90;;;;;;5055530;28;20035;-66